ADDS METAR Data INFO
IDs: Format: Raw Decoded Include TAF

Data at: 1046 UTC 19 Oct 2017

KHSE 190951Z AUTO 04006KT 10SM CLR 19/17 A3024 RMK AO2 SLP239 T01890172 TSNO
KHSE 190851Z AUTO 03005KT 10SM FEW060 19/18 A3024 RMK AO2 SLP240 T01940178 55005 TSNO
KHSE 190751Z AUTO 04007KT 10SM SCT045 19/17 A3024 RMK AO2 SLP239 T01940172 TSNO
KHSE 190651Z AUTO 04005KT 10SM FEW060 19/17 A3025 RMK AO2 SLP241 T01940172 TSNO
KHSE 190551Z AUTO 04005KT 10SM BKN044 BKN055 19/17 A3026 RMK AO2 SLP245 T01940172 10194 20189 56010 TSNO
KHSE 190451Z AUTO 05006KT 10SM CLR 19/17 A3026 RMK AO2 SLP247 T01890167 402170161 TSNO
KHSE 190351Z AUTO 05005KT 10SM CLR 19/17 A3027 RMK AO2 SLP251 T01890167 TSNO
KHSE 190251Z AUTO 04006KT 10SM FEW043 19/16 A3029 RMK AO2 SLP255 T01890161 55001 TSNO
KHSE 190151Z AUTO 05005KT 10SM CLR 19/16 A3029 RMK AO2 SLP255 T01890161 TSNO
KHSE 190051Z AUTO 05006KT 10SM CLR 19/16 A3028 RMK AO2 SLP254 T01890156 TSNO
KHSE 182351Z AUTO 04006KT 10SM CLR 19/16 A3029 RMK AO2 SLP257 T01890156 10217 20189 53003 TSNO
KHSE 182251Z AUTO 04007KT 020V080 10SM CLR 19/15 A3029 RMK AO2 SLP256 T01890150 TSNO
KHSE 182151Z AUTO 05007G16KT 10SM CLR 20/15 A3028 RMK AO2 SLP253 T02000150 TSNO
KHSE 182051Z AUTO 04007KT 350V070 10SM CLR 21/15 A3028 RMK AO2 SLP254 T02110150 56006 TSNO
KHSE 181951Z AUTO 04008G16KT 10SM CLR 22/15 A3029 RMK AO2 SLP255 T02170150 TSNO
KHSE 181851Z AUTO 04009G20KT 10SM CLR 22/14 A3029 RMK AO2 SLP257 T02170144 TSNO
KHSE 181751Z AUTO 04011G19KT 10SM CLR 22/14 A3030 RMK AO2 SLP260 T02170144 10217 20167 58009 TSNO
KHSE 181651Z AUTO 04010G19KT 10SM CLR 22/14 A3032 RMK AO2 SLP267 T02170139 TSNO
KHSE 181551Z AUTO 03007G14KT 330V050 10SM FEW042 22/14 A3033 RMK AO2 SLP272 T02170144 TSNO
KHSE 181451Z AUTO 04009G17KT 10SM FEW039 21/13 A3033 RMK AO2 SLP270 T02060133 51010 TSNO
KHSE 181351Z AUTO 03010G17KT 10SM CLR 20/13 A3033 RMK AO2 SLP269 T02000133 TSNO
KHSE 181251Z AUTO 04008KT 10SM CLR 19/12 A3032 RMK AO2 SLP266 T01890122 TSNO
KHSE 181151Z AUTO 04007KT 360V060 10SM CLR 17/11 A3030 RMK AO2 SLP259 T01670106 10167 20161 51012 TSNO
KHSE 181051Z AUTO 05006KT 10SM CLR 16/12 A3029 RMK AO2 SLP257 T01610117 TSNO
KHSE 180951Z AUTO 04008KT 10SM CLR 16/12 A3028 RMK AO2 SLP253 T01610117 TSNO
KHSE 180851Z AUTO 05008KT 10SM CLR 16/12 A3026 RMK AO2 SLP247 T01610117 53002 TSNO
KHSE 180751Z AUTO 04007G15KT 10SM CLR 17/12 A3026 RMK AO2 SLP245 T01670117 TSNO
KHSE 180651Z AUTO 04008G16KT 10SM CLR 17/12 A3026 RMK AO2 SLP245 T01670117 TSNO
KHSE 180551Z AUTO 04008G16KT 10SM CLR 17/11 A3026 RMK AO2 SLP245 T01670111 10167 20161 58008 TSNO
KHSE 180451Z AUTO 03007G16KT 350V060 10SM CLR 16/11 A3027 RMK AO2 SLP250 T01610111 401890161 TSNO
KHSE 180351Z AUTO VRB05G18KT 10SM CLR 16/11 A3027 RMK AO2 SLP250 T01610111 TSNO
KHSE 180251Z AUTO 03007G17KT 360V060 10SM CLR 16/11 A3028 RMK AO2 SLP254 T01610106 53006 TSNO
KHSE 180151Z AUTO 03007G15KT 10SM CLR 16/11 A3027 RMK AO2 SLP249 T01610106 TSNO
KHSE 180051Z AUTO 03008G16KT 10SM CLR 16/10 A3027 RMK AO2 SLP249 T01610100 TSNO
KHSE 172351Z AUTO 03007KT 350V060 10SM CLR 16/10 A3026 RMK AO2 SLP248 T01610100 10183 20161 53007 TSNO
KHSE 172251Z AUTO 03008G15KT 360V060 10SM SCT041 17/10 A3025 RMK AO2 SLP244 T01670100 TSNO